createdAt,value
2023-04-26T00:01:06.009Z,8.40
2023-04-26T00:06:27.598Z,8.36
2023-04-26T00:11:51.471Z,8.36
2023-04-26T00:17:13.402Z,8.39
2023-04-26T00:22:36.338Z,8.33
2023-04-26T00:27:58.066Z,8.30
2023-04-26T00:33:19.714Z,8.25
2023-04-26T00:38:41.521Z,8.15
2023-04-26T00:44:03.954Z,8.01
2023-04-26T00:49:28.591Z,7.86
2023-04-26T00:54:51.631Z,7.71
2023-04-26T01:00:13.702Z,7.56
2023-04-26T01:05:36.887Z,7.45
2023-04-26T01:10:59.527Z,7.37
2023-04-26T01:16:21.132Z,7.27
2023-04-26T01:21:43.052Z,7.16
2023-04-26T01:27:04.705Z,7.12
2023-04-26T01:32:26.447Z,7.06
2023-04-26T01:37:48.346Z,6.93
2023-04-26T01:43:11.273Z,6.84
2023-04-26T01:48:33.124Z,6.78
2023-04-26T01:53:56.255Z,6.73
2023-04-26T01:59:18.084Z,6.66
2023-04-26T02:04:39.988Z,6.59
2023-04-26T02:10:01.646Z,6.53
2023-04-26T02:15:24.466Z,6.47
2023-04-26T02:20:48.619Z,6.38
2023-04-26T02:26:11.809Z,6.31
2023-04-26T02:31:33.568Z,6.25
2023-04-26T02:36:55.314Z,6.19
2023-04-26T02:42:17.336Z,6.13
2023-04-26T02:47:39.133Z,6.09
2023-04-26T02:53:01.704Z,6.02
2023-04-26T02:58:24.338Z,5.96
2023-04-26T03:03:46.194Z,5.90
2023-04-26T03:09:08.313Z,5.83
2023-04-26T03:14:30.124Z,5.75
2023-04-26T03:19:52.142Z,5.69
2023-04-26T03:25:19.194Z,5.64
2023-04-26T03:30:40.720Z,5.58
2023-04-26T03:36:02.952Z,5.54
2023-04-26T03:41:25.593Z,5.49
2023-04-26T03:46:47.929Z,5.45
2023-04-26T03:52:11.253Z,5.43
2023-04-26T03:57:35.130Z,5.42
2023-04-26T04:02:57.230Z,5.45
2023-04-26T04:08:19.141Z,5.46
2023-04-26T04:13:43.183Z,5.47
2023-04-26T04:19:06.111Z,5.49
2023-04-26T04:24:28.144Z,5.48
2023-04-26T04:29:50.976Z,5.61
2023-04-26T04:35:13.614Z,6.36
2023-04-26T04:40:36.562Z,7.00
2023-04-26T04:45:58.752Z,6.81
2023-04-26T04:51:20.394Z,6.77
2023-04-26T04:56:44.738Z,6.82
2023-04-26T05:02:07.915Z,6.95
2023-04-26T05:07:29.706Z,7.01
2023-04-26T05:12:54.042Z,6.95
2023-04-26T05:18:16.165Z,6.82
2023-04-26T05:23:38.598Z,6.90
2023-04-26T05:29:00.528Z,6.95
2023-04-26T05:34:44.649Z,6.94
2023-04-26T05:40:12.655Z,7.04
2023-04-26T05:45:34.832Z,7.08
2023-04-26T05:50:57.054Z,7.15
2023-04-26T05:56:18.575Z,7.18
2023-04-26T06:01:41.002Z,7.23
2023-04-26T06:07:02.909Z,7.29
2023-04-26T06:12:24.781Z,7.38
2023-04-26T06:17:47.365Z,7.41
2023-04-26T06:23:11.679Z,7.53
2023-04-26T06:28:33.357Z,7.61
2023-04-26T06:33:55.456Z,7.61
2023-04-26T06:39:17.676Z,7.69
2023-04-26T06:44:40.553Z,7.86
2023-04-26T06:50:05.080Z,8.04
2023-04-26T06:55:26.938Z,8.24
2023-04-26T07:00:48.752Z,8.41
2023-04-26T07:06:10.727Z,8.53
2023-04-26T07:11:34.746Z,8.58
2023-04-26T07:16:56.947Z,8.78
2023-04-26T07:22:18.778Z,8.82
2023-04-26T07:27:40.616Z,8.74
2023-04-26T07:33:03.252Z,8.77
2023-04-26T07:38:25.644Z,8.89
2023-04-26T07:43:47.899Z,8.81
2023-04-26T07:49:12.536Z,8.80
2023-04-26T07:54:33.965Z,8.90
2023-04-26T07:59:55.792Z,9.11
2023-04-26T08:05:18.175Z,9.17
2023-04-26T08:10:43.168Z,9.07
2023-04-26T08:16:05.800Z,9.13
2023-04-26T08:21:27.722Z,9.16
2023-04-26T08:26:49.453Z,9.31
2023-04-26T08:32:11.089Z,9.26
2023-04-26T08:37:35.893Z,9.34
2023-04-26T08:42:57.342Z,9.32
2023-04-26T08:48:19.577Z,9.26
2023-04-26T08:53:42.115Z,9.19
2023-04-26T08:59:08.358Z,9.20
2023-04-26T09:04:30.229Z,9.54
2023-04-26T09:09:53.522Z,9.76
2023-04-26T09:15:15.851Z,10.02
2023-04-26T09:20:37.782Z,9.88
2023-04-26T09:26:19.634Z,9.65
2023-04-26T09:31:45.267Z,9.80
2023-04-26T09:37:12.698Z,10.18
2023-04-26T09:42:35.915Z,10.18
2023-04-26T09:48:41.479Z,10.16
2023-04-26T09:54:03.411Z,10.55
2023-04-26T09:59:25.350Z,10.51
2023-04-26T10:04:50.392Z,10.57
2023-04-26T10:10:12.914Z,10.69
2023-04-26T10:15:35.645Z,10.97
2023-04-26T10:21:01.295Z,11.17
2023-04-26T10:26:53.438Z,11.23
2023-04-26T10:32:18.703Z,11.24
2023-04-26T10:37:59.718Z,10.89
2023-04-26T10:43:29.226Z,10.78
2023-04-26T10:48:51.410Z,10.91
2023-04-26T10:54:13.478Z,11.17
2023-04-26T10:59:47.180Z,11.29
2023-04-26T11:05:54.268Z,10.95
2023-04-26T11:11:19.575Z,10.57
2023-04-26T11:16:43.096Z,10.82
2023-04-26T11:22:10.029Z,11.30
2023-04-26T11:27:31.488Z,11.70
2023-04-26T11:32:53.490Z,11.57
2023-04-26T11:38:16.050Z,11.30
2023-04-26T11:43:37.641Z,11.10
2023-04-26T11:49:00.165Z,10.99
2023-04-26T11:54:36.140Z,10.84
2023-04-26T12:00:14.721Z,10.72
2023-04-26T12:05:36.937Z,10.88
2023-04-26T12:11:03.720Z,11.14
2023-04-26T12:16:27.099Z,11.00
2023-04-26T12:21:50.621Z,10.66
2023-04-26T12:27:20.608Z,10.44
2023-04-26T12:32:42.808Z,10.59
2023-04-26T12:38:06.753Z,10.71
2023-04-26T12:43:29.287Z,11.13
2023-04-26T12:48:51.692Z,11.48
2023-04-26T12:54:13.559Z,11.61
2023-04-26T12:59:35.578Z,11.49
2023-04-26T13:04:57.678Z,11.18
2023-04-26T13:10:19.773Z,10.94
2023-04-26T13:15:41.990Z,10.72
2023-04-26T13:21:03.888Z,10.78
2023-04-26T13:26:27.683Z,11.09
2023-04-26T13:31:50.411Z,11.38
2023-04-26T13:37:12.492Z,11.21
2023-04-26T13:42:34.312Z,10.76
2023-04-26T13:47:55.756Z,10.49
2023-04-26T13:53:17.470Z,10.41
2023-04-26T13:58:42.607Z,10.64
2023-04-26T14:04:09.789Z,10.90
2023-04-26T14:09:31.914Z,11.03
2023-04-26T14:14:53.517Z,10.91
2023-04-26T14:20:15.547Z,10.70
2023-04-26T14:25:37.374Z,10.81
2023-04-26T14:30:59.108Z,11.06
2023-04-26T14:36:20.940Z,10.88
2023-04-26T14:41:43.468Z,10.61
2023-04-26T14:47:05.498Z,10.51
2023-04-26T14:52:29.039Z,10.50
2023-04-26T14:57:50.959Z,10.52
2023-04-26T15:03:14.360Z,10.61
2023-04-26T15:08:37.327Z,10.66
2023-04-26T15:14:01.121Z,10.65
2023-04-26T15:19:23.494Z,10.64
2023-04-26T15:24:45.022Z,10.60
2023-04-26T15:30:09.075Z,10.56
2023-04-26T15:35:31.484Z,10.57
2023-04-26T15:40:56.837Z,10.61
2023-04-26T15:46:18.484Z,10.66
2023-04-26T15:51:41.185Z,10.59
2023-04-26T15:57:04.115Z,10.62
2023-04-26T16:02:26.142Z,10.72
2023-04-26T16:07:48.280Z,10.56
2023-04-26T16:13:10.007Z,10.19
2023-04-26T16:18:32.039Z,9.70
2023-04-26T16:23:53.605Z,9.42
2023-04-26T16:29:15.580Z,9.27
2023-04-26T16:34:40.481Z,9.17
2023-04-26T16:40:04.171Z,9.13
2023-04-26T16:45:26.399Z,9.08
2023-04-26T16:50:49.469Z,9.07
2023-04-26T16:56:13.883Z,9.11
2023-04-26T17:01:36.034Z,9.26
2023-04-26T17:06:58.133Z,9.43
2023-04-26T17:12:20.958Z,9.61
2023-04-26T17:17:42.733Z,9.55
2023-04-26T17:23:04.832Z,9.40
2023-04-26T17:28:26.821Z,9.28
2023-04-26T17:33:48.985Z,9.23
2023-04-26T17:39:10.884Z,9.19
2023-04-26T17:44:32.542Z,9.15
2023-04-26T17:49:54.680Z,9.07
2023-04-26T17:55:16.701Z,9.00
2023-04-26T18:00:38.377Z,8.91
2023-04-26T18:06:00.257Z,8.85
2023-04-26T18:11:22.239Z,8.75
2023-04-26T18:16:43.882Z,8.71
2023-04-26T18:22:07.729Z,8.70
2023-04-26T18:27:32.848Z,8.70
2023-04-26T18:32:54.750Z,8.70
2023-04-26T18:38:17.154Z,8.66
2023-04-26T18:43:38.580Z,8.61
2023-04-26T18:49:01.371Z,8.52
2023-04-26T18:54:26.453Z,8.44
2023-04-26T18:59:49.555Z,8.34
2023-04-26T19:05:11.745Z,8.25
2023-04-26T19:10:33.750Z,8.19
2023-04-26T19:15:58.217Z,8.16
2023-04-26T19:21:23.054Z,8.17
2023-04-26T19:26:46.358Z,8.19
2023-04-26T19:32:07.835Z,8.21
2023-04-26T19:37:29.690Z,8.16
2023-04-26T19:42:51.511Z,8.15
2023-04-26T19:48:13.496Z,8.18
2023-04-26T19:53:35.671Z,8.20
2023-04-26T19:58:57.445Z,8.22
2023-04-26T20:04:18.816Z,8.23
2023-04-26T20:09:40.492Z,8.26
2023-04-26T20:15:02.317Z,8.27
2023-04-26T20:20:24.478Z,8.27
2023-04-26T20:25:48.390Z,8.25
2023-04-26T20:31:10.089Z,8.15
2023-04-26T20:36:31.987Z,8.04
2023-04-26T20:41:53.404Z,7.92
2023-04-26T20:47:16.001Z,7.80
2023-04-26T20:52:37.530Z,7.68
2023-04-26T20:58:01.593Z,7.57
2023-04-26T21:03:24.003Z,7.46
2023-04-26T21:08:46.243Z,7.37
2023-04-26T21:14:07.668Z,7.30
2023-04-26T21:19:30.773Z,7.23
2023-04-26T21:24:55.796Z,7.13
2023-04-26T21:30:17.875Z,7.04
2023-04-26T21:35:39.645Z,6.92
2023-04-26T21:41:01.220Z,6.75
2023-04-26T21:46:23.278Z,6.67
2023-04-26T21:51:45.177Z,6.65
2023-04-26T21:57:07.153Z,6.61
2023-04-26T22:02:29.144Z,6.52
2023-04-26T22:07:50.869Z,6.43
2023-04-26T22:13:12.789Z,6.36
2023-04-26T22:18:35.520Z,6.38
2023-04-26T22:23:57.519Z,6.47
2023-04-26T22:29:19.581Z,6.57
2023-04-26T22:34:43.667Z,6.66
2023-04-26T22:40:08.224Z,6.70
2023-04-26T22:45:30.186Z,6.74
2023-04-26T22:50:51.614Z,6.81
2023-04-26T22:56:13.142Z,6.88
2023-04-26T23:01:34.926Z,6.94
2023-04-26T23:06:56.807Z,6.91
2023-04-26T23:12:20.204Z,6.88
2023-04-26T23:17:42.592Z,6.86
2023-04-26T23:23:04.296Z,6.81
2023-04-26T23:28:26.533Z,6.77
2023-04-26T23:33:48.356Z,6.75
2023-04-26T23:39:10.246Z,6.75
2023-04-26T23:44:32.431Z,6.75
2023-04-26T23:49:55.142Z,6.73
2023-04-26T23:55:16.730Z,6.73
